Time;durP1;ratioP1;P1;durP2;ratioP2;P2;SDS_P1;SDS_P2;PMS_P1;PMS_P2;Temp;Humidity;BMP_temperature;BMP_pressure;BME280_temperature;BME280_humidity;BME280_pressure;Samples;Min_cycle;Max_cycle;Signal;HPM_P1;HPM_P2
2023/03/26 00:01:15;;;;;;;30.10;7.00;;;;;;;6.37;100.00;100555.44;6216413;23;20004;-88
2023/03/26 00:03:43;;;;;;;34.22;8.15;;;;;;;6.10;100.00;100516.81;6250225;23;20015;-87
2023/03/26 00:06:14;;;;;;;33.90;7.78;;;;;;;6.05;100.00;100517.00;6223951;23;20031;-89
2023/03/26 00:08:41;;;;;;;38.95;7.78;;;;;;;6.25;100.00;100547.97;6222900;23;20011;-89
2023/03/26 00:11:09;;;;;;;31.08;8.02;;;;;;;5.97;100.00;100517.28;6250041;23;20023;-89
2023/03/26 00:13:35;;;;;;;30.08;7.60;;;;;;;5.83;100.00;100487.00;6246219;23;20011;-88
2023/03/26 00:16:02;;;;;;;41.67;8.18;;;;;;;6.20;100.00;100549.94;6240586;22;20043;-87
2023/03/26 00:18:30;;;;;;;33.33;7.38;;;;;;;5.85;100.00;100486.03;6237820;23;20000;-88
2023/03/26 00:21:00;;;;;;;29.13;7.60;;;;;;;5.88;100.00;100485.03;6240592;23;20000;-89
2023/03/26 00:23:27;;;;;;;44.30;8.45;;;;;;;6.07;100.00;100520.47;6240167;23;20082;-87
2023/03/26 00:25:54;;;;;;;34.83;7.72;;;;;;;5.97;100.00;100506.72;6240738;23;20011;-87
2023/03/26 00:28:21;;;;;;;30.60;7.57;;;;;;;6.19;100.00;100554.34;6220934;23;20004;-88
2023/03/26 00:30:48;;;;;;;35.90;8.27;;;;;;;5.99;100.00;100533.97;6246326;23;20381;-88
2023/03/26 00:33:16;;;;;;;31.73;7.32;;;;;;;5.77;100.00;100487.22;6246882;23;20034;-88
2023/03/26 00:35:45;;;;;;;38.92;8.85;;;;;;;6.08;100.00;100534.53;6247898;23;20397;-89
2023/03/26 00:38:11;;;;;;;30.13;7.90;;;;;;;5.68;100.00;100477.84;6212033;23;20028;-87
2023/03/26 00:40:37;;;;;;;40.78;7.97;;;;;;;5.64;100.00;100484.16;6211028;23;20087;-87
2023/03/26 00:43:17;;;;;;;39.60;9.13;;;;;;;5.93;100.00;100533.31;6239565;23;20027;-87
2023/03/26 00:45:43;;;;;;;35.13;8.25;;;;;;;5.53;100.00;100466.06;6239319;23;20010;-87
2023/03/26 00:48:08;;;;;;;28.10;7.78;;;;;;;5.63;100.00;100477.16;6238368;23;20095;-87
2023/03/26 00:50:34;;;;;;;35.05;7.32;;;;;;;5.83;100.00;100498.41;6242881;23;20004;-88
2023/03/26 00:52:59;;;;;;;34.17;8.15;;;;;;;5.73;100.00;100478.56;6243571;23;20004;-87
2023/03/26 00:55:25;;;;;;;31.27;8.38;;;;;;;5.78;100.00;100478.38;6243057;23;20074;-88
2023/03/26 00:57:50;;;;;;;31.30;7.80;;;;;;;5.69;100.00;100464.59;6241193;23;20000;-88
2023/03/26 01:00:17;;;;;;;33.45;7.57;;;;;;;6.07;100.00;100524.91;6242630;23;20390;-87
2023/03/26 01:02:43;;;;;;;34.08;7.63;;;;;;;5.93;100.00;100491.91;6243619;23;20004;-88
2023/03/26 01:05:33;;;;;;;33.10;7.80;;;;;;;6.03;100.00;100515.34;6243629;23;20010;-88
2023/03/26 01:08:13;;;;;;;33.67;7.38;;;;;;;6.04;100.00;100507.38;6242799;23;20429;-87
2023/03/26 01:10:39;;;;;;;31.70;7.28;;;;;;;5.83;100.00;100476.44;6217093;23;20477;-87
2023/03/26 01:13:06;;;;;;;31.75;7.07;;;;;;;5.80;100.00;100469.47;6240840;23;20008;-87
2023/03/26 01:15:32;;;;;;;36.30;8.77;;;;;;;5.71;100.00;100459.25;6241383;22;20008;-86
2023/03/26 01:17:57;;;;;;;32.33;8.15;;;;;;;5.65;100.00;100446.28;6239345;23;20004;-88
2023/03/26 01:20:29;;;;;;;27.25;7.32;;;;;;;5.88;100.00;100480.63;6243415;23;20079;-88
2023/03/26 01:23:04;;;;;;;29.38;7.15;;;;;;;5.58;100.00;100426.31;6242807;23;20031;-89
2023/03/26 01:25:37;;;;;;;31.38;7.40;;;;;;;5.50;100.00;100414.25;6242527;23;20155;-88
2023/03/26 01:28:07;;;;;;;32.05;8.52;;;;;;;5.65;100.00;100441.88;6240850;23;20062;-87
2023/03/26 01:30:48;;;;;;;31.70;7.32;;;;;;;5.62;100.00;100447.25;6242463;23;20349;-86
2023/03/26 01:33:19;;;;;;;30.10;7.03;;;;;;;5.68;100.00;100462.84;6242642;23;20007;-87
2023/03/26 01:36:04;;;;;;;33.95;8.18;;;;;;;5.62;100.00;100455.19;6242879;23;20004;-87
2023/03/26 01:38:45;;;;;;;34.58;8.10;;;;;;;5.25;100.00;100390.53;6241984;23;20028;-88
2023/03/26 01:41:27;;;;;;;29.30;7.00;;;;;;;5.52;100.00;100447.63;6242858;23;20053;-88
2023/03/26 01:44:14;;;;;;;34.92;7.53;;;;;;;5.59;100.00;100452.63;6240144;23;20007;-87
2023/03/26 01:46:41;;;;;;;30.90;7.72;;;;;;;5.29;100.00;100407.13;6237903;23;20087;-86
2023/03/26 01:49:11;;;;;;;31.23;7.38;;;;;;;5.36;100.00;100420.97;6253612;23;20004;-89
2023/03/26 01:51:40;;;;;;;27.98;7.30;;;;;;;5.38;100.00;100414.69;6266420;22;20044;-87
2023/03/26 01:54:11;;;;;;;30.20;7.25;;;;;;;5.32;100.00;100412.28;6265564;23;20012;-87
2023/03/26 01:56:50;;;;;;;24.45;6.45;;;;;;;5.49;100.00;100438.06;6265631;22;20015;-87
2023/03/26 01:59:30;;;;;;;27.90;6.95;;;;;;;5.35;100.00;100412.19;6265997;22;20048;-86
2023/03/26 02:02:24;;;;;;;31.58;7.65;;;;;;;5.52;100.00;100431.78;6266718;22;20012;-86
2023/03/26 02:05:28;;;;;;;42.65;8.15;;;;;;;5.22;100.00;100374.81;6250506;23;20019;-87
2023/03/26 02:08:04;;;;;;;28.08;7.60;;;;;;;5.35;100.00;100375.25;6254767;23;20011;-85
2023/03/26 02:10:35;;;;;;;34.03;8.32;;;;;;;5.23;100.00;100350.16;6257331;23;19996;-87
2023/03/26 02:13:01;;;;;;;29.17;7.60;;;;;;;5.31;100.00;100355.16;6269243;22;19988;-88
2023/03/26 02:15:26;;;;;;;31.58;8.50;;;;;;;5.34;100.00;100352.38;6243210;22;20003;-87
2023/03/26 02:17:52;;;;;;;26.98;7.07;;;;;;;5.47;100.00;100371.25;6270032;22;20016;-87
2023/03/26 02:20:20;;;;;;;32.25;7.88;;;;;;;5.48;100.00;100359.81;6270687;22;20019;-89
2023/03/26 02:22:46;;;;;;;34.08;7.63;;;;;;;5.64;100.00;100379.44;6270245;22;20034;-87
2023/03/26 02:25:19;;;;;;;29.55;7.43;;;;;;;5.46;100.00;100362.47;6269781;22;20016;-87
2023/03/26 02:27:46;;;;;;;32.65;8.05;;;;;;;5.66;100.00;100376.72;6269317;22;20008;-87
2023/03/26 02:30:15;;;;;;;27.95;6.82;;;;;;;5.43;100.00;100345.91;6269104;22;20009;-88
2023/03/26 02:32:42;;;;;;;29.05;7.40;;;;;;;5.41;100.00;100340.69;6269999;22;19996;-87
2023/03/26 02:35:08;;;;;;;31.50;7.80;;;;;;;5.64;100.00;100375.91;6269034;22;20020;-88
2023/03/26 02:37:34;;;;;;;28.20;7.38;;;;;;;5.29;100.00;100320.03;6267484;22;20008;-87
2023/03/26 02:40:00;;;;;;;31.83;8.18;;;;;;;5.54;100.00;100351.63;6267206;22;20119;-88
2023/03/26 02:42:26;;;;;;;33.47;8.13;;;;;;;5.70;100.00;100373.03;6259026;23;20003;-89
2023/03/26 02:44:51;;;;;;;26.17;8.00;;;;;;;5.33;100.00;100303.16;6242992;23;19999;-88
2023/03/26 02:47:17;;;;;;;31.52;7.43;;;;;;;5.72;100.00;100365.91;6242232;23;20453;-89
2023/03/26 02:49:43;;;;;;;27.50;7.80;;;;;;;5.55;100.00;100326.94;6242985;23;20004;-88
2023/03/26 02:52:08;;;;;;;30.65;7.88;;;;;;;5.44;100.00;100302.78;6243386;23;20548;-87
2023/03/26 02:54:34;;;;;;;31.58;7.50;;;;;;;5.48;100.00;100307.00;6243607;23;20405;-87
2023/03/26 02:57:00;;;;;;;26.38;8.18;;;;;;;5.68;100.00;100343.19;6243954;23;20004;-87
2023/03/26 02:59:25;;;;;;;34.92;8.30;;;;;;;5.37;100.00;100274.88;6243774;23;20008;-87
2023/03/26 03:01:51;;;;;;;31.98;8.10;;;;;;;5.63;100.00;100318.75;6243989;23;20010;-88
2023/03/26 03:04:16;;;;;;;30.30;7.60;;;;;;;5.43;100.00;100272.00;6244085;23;20495;-89
2023/03/26 03:06:43;;;;;;;27.90;6.45;;;;;;;5.65;100.00;100303.72;6216978;23;20484;-88
2023/03/26 03:09:10;;;;;;;25.67;6.88;;;;;;;5.66;100.00;100298.38;6243306;23;20012;-88
2023/03/26 03:11:36;;;;;;;23.05;7.05;;;;;;;5.42;100.00;100257.94;6242360;23;20018;-86
2023/03/26 03:14:02;;;;;;;29.13;7.38;;;;;;;5.83;100.00;100329.41;6241949;23;20639;-87
2023/03/26 03:16:27;;;;;;;30.13;6.80;;;;;;;5.45;100.00;100251.69;6240204;22;20004;-88
2023/03/26 03:18:55;;;;;;;26.60;6.75;;;;;;;5.81;100.00;100303.94;6241505;23;20388;-87
2023/03/26 03:21:27;;;;;;;26.42;6.00;;;;;;;5.49;100.00;100248.88;6241854;23;20000;-88
2023/03/26 03:23:54;;;;;;;24.33;6.10;;;;;;;5.64;100.00;100265.00;6240625;23;20007;-88
2023/03/26 03:26:21;;;;;;;22.80;5.97;;;;;;;5.75;100.00;100276.88;6240716;23;20007;-88
2023/03/26 03:28:49;;;;;;;20.25;6.18;;;;;;;5.84;100.00;100286.22;6241771;23;20053;-88
2023/03/26 03:31:16;;;;;;;24.95;6.07;;;;;;;5.66;100.00;100258.75;6241536;23;20434;-88
2023/03/26 03:33:42;;;;;;;23.98;5.78;;;;;;;5.72;100.00;100265.56;6214131;23;20000;-88
2023/03/26 03:36:10;;;;;;;19.27;5.40;;;;;;;5.63;100.00;100243.03;6240740;23;20001;-88
2023/03/26 03:38:40;;;;;;;19.38;5.90;;;;;;;5.66;100.00;100242.06;6240419;23;20087;-87
2023/03/26 03:41:06;;;;;;;22.73;5.72;;;;;;;5.89;100.00;100292.16;6241474;23;20015;-88
2023/03/26 03:43:32;;;;;;;22.63;5.63;;;;;;;5.68;100.00;100253.41;6241470;23;20155;-89
2023/03/26 03:45:59;;;;;;;21.45;6.07;;;;;;;5.88;100.00;100281.66;6240527;23;20008;-87
2023/03/26 03:48:24;;;;;;;23.58;5.88;;;;;;;5.68;100.00;100240.22;6239065;23;20000;-87
2023/03/26 03:50:50;;;;;;;22.20;5.10;;;;;;;5.58;100.00;100212.47;6239541;23;20050;-88
2023/03/26 03:53:17;;;;;;;23.63;6.00;;;;;;;5.58;100.00;100210.69;6239032;23;20600;-87
2023/03/26 03:55:51;;;;;;;20.85;5.60;;;;;;;5.60;100.00;100213.25;6239171;23;20027;-87
2023/03/26 03:58:21;;;;;;;20.83;4.88;;;;;;;5.78;100.00;100230.16;6239447;23;20394;-87
2023/03/26 04:00:51;;;;;;;20.58;5.72;;;;;;;5.96;100.00;100267.25;6238148;23;20019;-85
2023/03/26 04:03:18;;;;;;;25.02;5.43;;;;;;;5.59;100.00;100193.06;6238232;23;20685;-86
2023/03/26 04:05:48;;;;;;;21.33;5.05;;;;;;;5.54;100.00;100195.91;6238298;23;20000;-85
2023/03/26 04:08:17;;;;;;;22.27;6.00;;;;;;;5.66;100.00;100211.25;6237935;23;20008;-85
2023/03/26 04:10:43;;;;;;;23.25;5.78;;;;;;;5.56;100.00;100183.50;6238147;23;20004;-85
2023/03/26 04:13:11;;;;;;;20.70;5.57;;;;;;;5.54;100.00;100182.69;6239186;23;20057;-87
2023/03/26 04:15:37;;;;;;;20.23;5.47;;;;;;;5.73;100.00;100201.31;6238980;22;20020;-87
2023/03/26 04:18:02;;;;;;;22.85;5.20;;;;;;;5.96;100.00;100235.56;6239196;23;20764;-87
2023/03/26 04:20:27;;;;;;;24.25;5.65;;;;;;;5.70;100.00;100175.00;6238886;23;20068;-87
2023/03/26 04:22:53;;;;;;;21.25;5.18;;;;;;;5.64;100.00;100162.03;6230593;23;20004;-84
2023/03/26 04:25:20;;;;;;;23.83;6.30;;;;;;;5.71;100.00;100184.66;6261800;23;20019;-85
2023/03/26 04:27:46;;;;;;;21.35;5.25;;;;;;;5.74;100.00;100188.03;6262122;23;20067;-86
2023/03/26 04:30:17;;;;;;;21.67;5.57;;;;;;;5.73;100.00;100183.66;6262306;23;20007;-86
2023/03/26 04:32:44;;;;;;;26.42;6.07;;;;;;;5.55;100.00;100147.44;6266851;23;20035;-86
2023/03/26 04:35:15;;;;;;;16.15;4.72;;;;;;;5.85;100.00;100192.88;6266383;22;20035;-86
2023/03/26 04:37:43;;;;;;;18.67;5.88;;;;;;;5.47;100.00;100128.44;6266889;23;19992;-86
2023/03/26 04:40:18;;;;;;;19.27;5.20;;;;;;;5.72;100.00;100168.72;6266524;23;20001;-88
2023/03/26 04:42:44;;;;;;;22.27;5.75;;;;;;;5.47;100.00;100123.16;6266458;23;20008;-86
2023/03/26 04:45:14;;;;;;;23.77;5.95;;;;;;;5.54;100.00;100134.31;6259535;23;20031;-85
2023/03/26 04:47:40;;;;;;;21.95;6.22;;;;;;;5.56;100.00;100135.09;6253417;23;20670;-87
2023/03/26 04:50:08;;;;;;;23.17;5.68;;;;;;;5.75;100.00;100170.41;6224091;23;20083;-84
2023/03/26 04:52:34;;;;;;;20.52;5.90;;;;;;;5.29;100.00;100089.63;6242091;23;20004;-88
2023/03/26 04:55:00;;;;;;;22.55;5.35;;;;;;;5.61;100.00;100154.28;6242378;23;20007;-88
2023/03/26 04:57:33;;;;;;;21.10;5.45;;;;;;;5.42;100.00;100119.84;6240912;23;20483;-86
2023/03/26 04:59:59;;;;;;;19.60;5.78;;;;;;;5.46;100.00;100118.81;6242844;23;20005;-88
2023/03/26 05:02:25;;;;;;;24.92;5.70;;;;;;;5.36;100.00;100107.78;6241997;23;20074;-85
2023/03/26 05:04:51;;;;;;;18.45;5.18;;;;;;;5.49;100.00;100127.47;6240963;23;20000;-84
2023/03/26 05:07:21;;;;;;;19.48;5.32;;;;;;;5.63;100.00;100144.50;6240144;23;20278;-86
2023/03/26 05:09:46;;;;;;;16.98;5.30;;;;;;;5.50;100.00;100120.41;6239859;23;20016;-87
2023/03/26 05:12:12;;;;;;;22.58;5.78;;;;;;;5.31;100.00;100079.84;6239446;23;20003;-87
2023/03/26 05:14:37;;;;;;;23.15;5.68;;;;;;;5.31;100.00;100069.28;6239823;23;20043;-86
2023/03/26 05:17:09;;;;;;;21.42;6.68;;;;;;;5.56;100.00;100108.72;6238572;22;20016;-86
2023/03/26 05:19:35;;;;;;;23.73;5.57;;;;;;;5.39;100.00;100076.00;6237825;23;20034;-86
2023/03/26 05:22:01;;;;;;;16.90;5.35;;;;;;;5.30;100.00;100059.66;6238651;23;20087;-86
2023/03/26 05:24:27;;;;;;;25.70;5.80;;;;;;;5.37;100.00;100061.97;6238466;23;20035;-86
2023/03/26 05:26:53;;;;;;;21.17;6.35;;;;;;;5.44;100.00;100076.66;6237506;23;20004;-88
2023/03/26 05:29:20;;;;;;;22.95;6.18;;;;;;;5.42;100.00;100073.19;6237561;23;20329;-87
2023/03/26 05:31:47;;;;;;;23.52;5.78;;;;;;;5.45;100.00;100070.44;6238686;23;20011;-86
2023/03/26 05:34:13;;;;;;;21.17;6.05;;;;;;;5.69;100.00;100110.78;6237806;23;20004;-88
2023/03/26 05:36:38;;;;;;;22.35;6.10;;;;;;;5.29;100.00;100039.47;6237835;23;20012;-86
2023/03/26 05:39:04;;;;;;;16.65;5.95;;;;;;;5.52;100.00;100078.09;6238560;23;20004;-88
2023/03/26 05:41:29;;;;;;;18.95;5.70;;;;;;;5.44;100.00;100050.25;6239017;23;20059;-88
2023/03/26 05:43:54;;;;;;;24.05;6.72;;;;;;;5.75;100.00;100093.81;6238881;23;20042;-87
2023/03/26 05:46:21;;;;;;;22.73;6.43;;;;;;;5.46;100.00;100045.75;6238305;23;20035;-88
2023/03/26 05:48:47;;;;;;;24.95;6.88;;;;;;;5.69;100.00;100078.25;6239321;23;20499;-87
2023/03/26 05:51:14;;;;;;;22.25;6.15;;;;;;;5.31;100.00;100009.47;6240361;23;20042;-86
2023/03/26 05:53:40;;;;;;;19.45;5.78;;;;;;;5.70;100.00;100078.19;6238545;23;20008;-87
2023/03/26 05:56:06;;;;;;;23.52;6.00;;;;;;;5.69;100.00;100072.97;6237230;23;20050;-87
2023/03/26 05:58:33;;;;;;;21.52;6.18;;;;;;;5.48;100.00;100036.00;6237393;23;20015;-86
2023/03/26 06:01:07;;;;;;;21.85;6.45;;;;;;;5.55;100.00;100046.28;6237920;23;20061;-87
2023/03/26 06:03:34;;;;;;;24.48;6.40;;;;;;;5.57;100.00;100039.19;6237929;23;20476;-86
2023/03/26 06:06:00;;;;;;;27.33;6.90;;;;;;;5.44;100.00;100026.50;6239555;23;20015;-87
2023/03/26 06:08:26;;;;;;;25.33;6.15;;;;;;;5.24;100.00;99979.00;6237885;23;20012;-87
2023/03/26 06:11:00;;;;;;;22.40;5.93;;;;;;;5.67;100.00;100051.91;6238181;23;20080;-87
2023/03/26 06:13:26;;;;;;;19.10;6.03;;;;;;;5.39;100.00;100002.09;6239596;23;20070;-88
2023/03/26 06:15:51;;;;;;;20.70;6.60;;;;;;;5.41;100.00;99999.38;6238911;22;20012;-87
2023/03/26 06:18:17;;;;;;;20.65;6.20;;;;;;;5.41;100.00;100000.25;6238220;23;20098;-86
2023/03/26 06:20:43;;;;;;;25.90;6.20;;;;;;;5.50;100.00;100002.47;6212736;23;20438;-86
2023/03/26 06:23:08;;;;;;;20.83;6.18;;;;;;;5.37;100.00;99988.09;6239230;23;20004;-85
2023/03/26 06:25:34;;;;;;;19.58;6.30;;;;;;;5.35;100.00;99982.03;6236620;23;20007;-86
2023/03/26 06:28:00;;;;;;;24.70;6.72;;;;;;;5.61;100.00;100027.56;6237770;23;20008;-87
2023/03/26 06:30:25;;;;;;;24.58;7.10;;;;;;;5.39;100.00;99994.19;6239039;23;20449;-89
2023/03/26 06:32:50;;;;;;;27.85;7.07;;;;;;;5.39;100.00;99991.53;6239154;23;20070;-87
2023/03/26 06:35:16;;;;;;;22.65;6.32;;;;;;;5.21;100.00;99961.50;6240896;23;20003;-86
2023/03/26 06:38:09;;;;;;;25.88;6.82;;;;;;;5.70;100.00;100046.50;6241019;23;20103;-94
2023/03/26 06:40:34;;;;;;;25.25;7.32;;;;;;;5.48;100.00;100009.63;6239773;23;20489;-88
2023/03/26 06:43:00;;;;;;;29.50;7.93;;;;;;;5.47;100.00;100005.22;6239466;23;20099;-89
2023/03/26 06:45:36;;;;;;;27.05;8.15;;;;;;;5.38;100.00;100007.41;6241376;23;20079;-90
2023/03/26 06:48:01;;;;;;;30.42;8.35;;;;;;;5.14;100.00;99961.81;6254605;23;20008;-88
2023/03/26 06:50:27;;;;;;;30.08;8.27;;;;;;;5.29;100.00;99978.78;6224475;23;20060;-87
2023/03/26 06:52:55;;;;;;;25.80;8.80;;;;;;;5.25;100.00;99967.50;6246927;23;20004;-89
2023/03/26 06:55:21;;;;;;;29.23;8.13;;;;;;;5.39;100.00;99996.81;6221205;23;20004;-85
2023/03/26 06:57:51;;;;;;;31.60;8.50;;;;;;;5.28;100.00;99972.66;6243598;23;20011;-86
2023/03/26 07:00:17;;;;;;;24.75;7.97;;;;;;;5.69;100.00;100038.66;6219486;23;20054;-84
2023/03/26 07:02:43;;;;;;;26.85;8.50;;;;;;;5.24;100.00;99960.53;6250303;23;20000;-88
2023/03/26 07:05:09;;;;;;;27.25;8.95;;;;;;;5.65;100.00;100029.16;6261414;23;20008;-87
2023/03/26 07:07:34;;;;;;;35.03;9.13;;;;;;;5.24;100.00;99965.81;6230706;23;20032;-85
2023/03/26 07:10:00;;;;;;;30.45;9.93;;;;;;;5.37;100.00;99972.25;6252774;23;20007;-86
2023/03/26 07:12:25;;;;;;;22.95;8.85;;;;;;;5.34;100.00;99971.53;6246920;23;20012;-84
2023/03/26 07:14:51;;;;;;;32.47;8.52;;;;;;;5.67;100.00;100017.56;6218119;23;20004;-86
2023/03/26 07:17:16;;;;;;;30.65;9.80;;;;;;;5.61;100.00;100007.28;6233405;23;20019;-86
2023/03/26 07:19:42;;;;;;;23.83;9.50;;;;;;;5.32;100.00;99958.41;6239725;23;20004;-87
2023/03/26 07:22:14;;;;;;;23.33;8.95;;;;;;;5.79;100.00;100025.88;6238744;23;20008;-86
2023/03/26 07:24:40;;;;;;;34.28;8.95;;;;;;;5.79;100.00;100023.25;6212446;23;20004;-86
2023/03/26 07:27:12;;;;;;;30.27;9.27;;;;;;;5.81;100.00;100022.28;6237836;23;20019;-87
2023/03/26 07:29:56;;;;;;;27.92;9.25;;;;;;;5.74;100.00;100005.81;6237236;23;20079;-86
2023/03/26 07:32:34;;;;;;;29.65;9.52;;;;;;;5.87;100.00;100018.50;6237893;23;20509;-85
2023/03/26 07:35:11;;;;;;;25.75;8.73;;;;;;;5.88;100.00;100009.63;6211037;23;20365;-85
2023/03/26 07:37:42;;;;;;;27.67;9.57;;;;;;;5.88;100.00;100007.84;6238369;23;20008;-85
2023/03/26 07:40:28;;;;;;;24.73;8.65;;;;;;;5.92;100.00;100006.81;6239429;23;20019;-85
2023/03/26 07:43:04;;;;;;;22.50;8.68;;;;;;;5.91;100.00;100001.56;6211441;23;20012;-84
2023/03/26 07:45:39;;;;;;;25.52;9.27;;;;;;;5.98;100.00;100009.19;6237070;23;20327;-85
2023/03/26 07:48:18;;;;;;;30.00;9.20;;;;;;;5.93;100.00;99992.66;6239559;23;20011;-85
2023/03/26 07:50:45;;;;;;;27.63;8.75;;;;;;;5.91;100.00;99988.38;6212791;23;20004;-85
2023/03/26 07:53:10;;;;;;;27.05;8.85;;;;;;;6.08;100.00;100006.97;6211748;23;20134;-86
2023/03/26 07:55:46;;;;;;;27.75;9.13;;;;;;;6.10;100.00;100001.63;6238643;23;20036;-86
2023/03/26 07:58:45;;;;;;;25.40;8.13;;;;;;;6.07;100.00;99978.84;6238634;23;20004;-84
2023/03/26 08:01:18;;;;;;;22.90;8.20;;;;;;;6.18;100.00;99988.91;6239017;23;20476;-84
2023/03/26 08:03:58;;;;;;;26.02;8.40;;;;;;;6.19;100.00;99995.94;6238366;23;20011;-86
2023/03/26 08:06:36;;;;;;;29.00;9.10;;;;;;;6.22;100.00;99988.69;6235271;23;20004;-85
2023/03/26 08:09:19;;;;;;;19.42;7.50;;;;;;;6.25;100.00;99987.72;6237088;23;20075;-86
2023/03/26 08:12:05;;;;;;;26.67;8.18;;;;;;;6.28;100.00;99986.72;6236133;23;20008;-86
2023/03/26 08:14:49;;;;;;;24.17;7.20;;;;;;;6.27;100.00;99983.22;6236207;23;20004;-86
2023/03/26 08:17:19;;;;;;;;;;;;;;;6.31;100.00;99981.25;6234907;22;20027;-84
2023/03/26 08:20:07;;;;;;;30.23;7.75;;;;;;;6.36;100.00;99976.66;6235994;23;19912;-85
2023/03/26 08:22:39;;;;;;;21.75;8.27;;;;;;;6.28;100.00;99961.16;6208878;23;20441;-85
2023/03/26 08:25:24;;;;;;;24.23;8.07;;;;;;;6.39;100.00;99976.47;6235824;23;20040;-85
2023/03/26 08:28:14;;;;;;;28.85;9.00;;;;;;;6.45;100.00;99977.06;6235165;23;20018;-85
2023/03/26 08:30:40;;;;;;;26.45;8.25;;;;;;;6.43;100.00;99967.47;6208669;23;20422;-85
2023/03/26 08:33:19;;;;;;;25.63;8.48;;;;;;;6.37;100.00;99958.06;6235742;23;20011;-85
2023/03/26 08:35:45;;;;;;;22.08;8.10;;;;;;;6.38;100.00;99965.06;6234769;23;20512;-85
2023/03/26 08:38:12;;;;;;;27.25;7.78;;;;;;;6.44;100.00;99972.72;6233566;23;20107;-85
2023/03/26 08:41:10;;;;;;;27.38;9.20;;;;;;;6.43;100.00;99981.53;6233970;23;20073;-85
2023/03/26 08:43:57;;;;;;;28.65;8.38;;;;;;;6.34;100.00;99970.56;6208582;23;20014;-87
2023/03/26 08:47:06;;;;;;;21.20;8.68;;;;;;;6.38;100.00;99978.28;6236447;23;20004;-85
2023/03/26 08:49:45;;;;;;;29.45;8.77;;;;;;;6.41;100.00;99972.84;6239487;23;20434;-85
2023/03/26 08:52:35;;;;;;;25.73;8.57;;;;;;;6.39;100.00;99972.03;6210464;23;20588;-85
2023/03/26 08:55:38;;;;;;;23.10;8.45;;;;;;;6.40;100.00;99973.78;6235719;23;20062;-85
2023/03/26 08:58:25;;;;;;;22.50;7.78;;;;;;;6.28;100.00;99960.28;6237950;23;20094;-85
2023/03/26 09:01:27;;;;;;;20.38;7.95;;;;;;;6.36;100.00;99971.34;6238942;23;20012;-85
2023/03/26 09:04:14;;;;;;;22.65;8.10;;;;;;;6.45;100.00;99969.13;6237840;23;20444;-85
2023/03/26 09:07:05;;;;;;;19.98;8.57;;;;;;;6.48;100.00;99974.28;6236410;23;20034;-85
2023/03/26 09:09:53;;;;;;;21.08;8.48;;;;;;;6.47;100.00;99967.25;6237195;23;20004;-84
2023/03/26 09:12:38;;;;;;;17.05;7.57;;;;;;;6.45;100.00;99960.34;6207547;23;20442;-84
2023/03/26 09:15:23;;;;;;;17.63;7.40;;;;;;;6.47;100.00;99969.03;6236093;23;20023;-86
2023/03/26 09:18:10;;;;;;;18.38;7.97;;;;;;;6.48;100.00;99971.63;6235641;22;20446;-85
2023/03/26 09:20:47;;;;;;;21.35;8.40;;;;;;;6.52;100.00;99972.34;6235510;23;20008;-84
2023/03/26 09:23:40;;;;;;;19.85;7.70;;;;;;;6.53;100.00;99967.91;6233372;23;20089;-84
2023/03/26 09:26:25;;;;;;;22.75;8.10;;;;;;;6.62;100.00;99967.47;6235233;23;20004;-84
2023/03/26 09:29:08;;;;;;;15.90;7.30;;;;;;;6.63;100.00;99954.16;6241260;23;20158;-84
2023/03/26 09:32:08;;;;;;;19.63;8.18;;;;;;;6.70;100.00;99957.38;6215410;23;20008;-84
2023/03/26 09:34:56;;;;;;;21.20;7.78;;;;;;;6.64;100.00;99953.22;6239234;23;20050;-85
2023/03/26 09:37:53;;;;;;;18.13;7.68;;;;;;;6.71;100.00;99957.28;6208631;23;20468;-84
2023/03/26 09:40:23;;;;;;;15.50;7.25;;;;;;;6.73;100.00;99955.44;6233509;23;20083;-84
2023/03/26 09:43:00;;;;;;;17.60;6.68;;;;;;;6.67;100.00;99955.72;6235386;23;20008;-84
2023/03/26 09:45:51;;;;;;;12.40;6.40;;;;;;;6.72;100.00;99968.72;6234270;23;20134;-83
2023/03/26 09:48:57;;;;;;;13.50;6.38;;;;;;;6.78;100.00;99954.34;6243253;23;20063;-83
2023/03/26 09:51:36;;;;;;;10.27;5.30;;;;;;;6.77;100.00;99957.91;6150359;23;20060;-82
2023/03/26 09:54:29;;;;;;;9.38;3.60;;;;;;;6.59;100.00;99964.97;6148909;23;20451;-83
2023/03/26 09:57:17;;;;;;;9.75;3.45;;;;;;;6.58;100.00;99966.75;6143906;23;20009;-84
2023/03/26 10:00:09;;;;;;;10.55;3.33;;;;;;;6.49;100.00;99960.13;6140603;23;20117;-84
2023/03/26 10:02:53;;;;;;;8.50;3.10;;;;;;;6.58;100.00;99963.25;6141786;23;20009;-84
2023/03/26 10:05:44;;;;;;;9.57;3.50;;;;;;;6.64;100.00;99960.28;6140883;23;20020;-85
2023/03/26 10:08:28;;;;;;;6.75;2.70;;;;;;;6.63;100.00;99966.53;6141334;23;20013;-83
2023/03/26 10:11:02;;;;;;;;;;;;;;;6.68;100.00;99965.34;6143571;23;20076;-84
2023/03/26 10:13:33;;;;;;;6.13;3.05;;;;;;;6.57;100.00;99977.41;6142358;23;20023;-83
2023/03/26 10:16:14;;;;;;;7.70;3.55;;;;;;;6.49;100.00;99977.78;6141525;23;20024;-85
2023/03/26 10:18:53;;;;;;;7.80;3.38;;;;;;;6.50;100.00;99979.47;6142491;23;20020;-83
2023/03/26 10:21:24;;;;;;;8.50;3.22;;;;;;;6.46;100.00;99973.47;6115985;23;20359;-83
2023/03/26 10:23:59;;;;;;;9.85;3.50;;;;;;;6.36;100.00;99976.66;6115992;23;20798;-85
2023/03/26 10:26:42;;;;;;;5.85;2.50;;;;;;;6.30;100.00;99977.78;6160265;23;20109;-85
2023/03/26 10:29:37;;;;;;;5.50;2.33;;;;;;;6.21;100.00;99984.34;6235394;23;20000;-83
2023/03/26 10:32:20;;;;;;;5.88;2.10;;;;;;;6.27;100.00;99977.94;6230806;23;20095;-86
2023/03/26 10:35:05;;;;;;;4.05;2.28;;;;;;;6.32;100.00;99983.00;6222774;23;20004;-84
2023/03/26 10:37:49;;;;;;;4.57;2.20;;;;;;;6.28;100.00;99965.56;6200919;23;20008;-86
2023/03/26 10:40:31;;;;;;;6.07;3.00;;;;;;;6.44;100.00;99983.28;6236918;23;20430;-85
2023/03/26 10:43:27;;;;;;;4.38;2.10;;;;;;;6.47;100.00;99988.41;6236462;23;20107;-86
2023/03/26 10:46:18;;;;;;;4.00;2.28;;;;;;;6.45;100.00;99984.13;6206607;23;20007;-86
2023/03/26 10:49:02;;;;;;;5.28;2.50;;;;;;;6.45;100.00;99978.84;6234396;23;20041;-86
2023/03/26 10:51:53;;;;;;;3.63;1.98;;;;;;;6.48;100.00;99979.56;6211113;23;20014;-84
2023/03/26 10:54:49;;;;;;;6.90;2.40;;;;;;;6.57;100.00;99986.19;6237241;23;20655;-83
2023/03/26 10:57:40;;;;;;;2.75;2.05;;;;;;;6.57;100.00;99977.41;6211055;23;20006;-84
2023/03/26 11:00:23;;;;;;;5.25;2.00;;;;;;;6.69;100.00;99987.41;6228099;23;20222;-84
2023/03/26 11:03:13;;;;;;;3.75;1.95;;;;;;;6.74;100.00;99985.38;6211430;23;20433;-85
2023/03/26 11:05:56;;;;;;;4.40;1.70;;;;;;;6.86;100.00;99981.28;6236411;23;20064;-82
2023/03/26 11:08:34;;;;;;;4.22;2.00;;;;;;;6.83;100.00;99979.63;6236933;23;20012;-83
2023/03/26 11:11:16;;;;;;;4.05;1.90;;;;;;;6.74;100.00;99983.59;6211946;23;20091;-85
2023/03/26 11:13:52;;;;;;;4.90;2.30;;;;;;;6.75;100.00;99971.22;6211581;23;20138;-87
2023/03/26 11:16:46;;;;;;;4.13;2.33;;;;;;;6.91;100.00;99987.19;6238009;22;20039;-87
2023/03/26 11:19:30;;;;;;;2.85;2.20;;;;;;;6.90;100.00;99969.63;6115598;23;20014;-88
2023/03/26 11:22:22;;;;;;;3.33;2.50;;;;;;;7.19;100.00;99986.66;6115241;23;20025;-87
2023/03/26 11:24:47;;;;;;;5.10;2.40;;;;;;;7.21;100.00;99998.03;6089988;23;20346;-87
2023/03/26 11:27:25;;;;;;;4.80;2.50;;;;;;;7.21;100.00;99996.25;6115513;23;20803;-86
2023/03/26 11:30:02;;;;;;;5.50;2.33;;;;;;;7.17;100.00;99996.47;6115068;23;20053;-86
2023/03/26 11:33:01;;;;;;;3.92;2.58;;;;;;;7.17;100.00;99996.47;6115742;23;20387;-87
2023/03/26 11:35:31;;;;;;;4.82;2.50;;;;;;;7.37;100.00;99992.81;6111024;23;20409;-89
2023/03/26 11:38:02;;;;;;;5.95;2.35;;;;;;;7.21;100.00;99972.41;6117329;23;20006;-90
2023/03/26 11:40:39;;;;;;;4.68;2.22;;;;;;;7.40;100.00;99990.88;6115505;23;20009;-87
2023/03/26 11:43:07;;;;;;;4.55;2.50;;;;;;;7.58;100.00;99988.22;6119441;23;20076;-94
2023/03/26 11:45:37;;;;;;;6.70;2.72;;;;;;;7.43;100.00;100009.22;6090159;23;20033;-88
2023/03/26 11:48:11;;;;;;;5.70;2.40;;;;;;;7.29;100.00;99993.22;6115646;23;20041;-86
2023/03/26 11:50:43;;;;;;;2.92;2.30;;;;;;;7.44;100.00;100005.69;6115664;23;20017;-87